ExpreSS Skopelitis — SW3130 — position and weather

sailwx.info

Track history (hours):
 
Tides and Currents Weather Stations Pressure Air Temp Water Temp Dewpoint Dewpoint Depression Visibility Wind Speed Wind Dir Waves Ship Positions

ExpreSS Skopelitis

Last reported at 2017-Jun-26 11:44 UTC. Time now 2017-Jun-26 15:31 UTC.
Position N 36°59' E 025°22'.

Length 45 m; draft 2.4 m.

Type: Passenger vessel. MMSI: 237029400.

Date/timePositionNaut miles runAvg speedWind from/ knotsBaromVisibWave heightAir tempDewpointWater temp
2017-Jun-26 11:44N 36°59' E 025°22'312.2
2017-Jun-26 11:31N 37°02' E 025°21'5 9.4
2017-Jun-26 11:01N 37°06' E 025°22'0 0.0
2017-Jun-26 10:31N 37°06' E 025°22'0 0.0
2017-Jun-26 10:01N 37°06' E 025°22'0 0.0
2017-Jun-26 09:31N 37°06' E 025°22'1 2.1
2017-Jun-26 09:01N 37°06' E 025°21'510.5
2017-Jun-26 08:31N 37°01' E 025°22'2 0.0
2017-Jun-24 11:44N 36°59' E 025°22'312.3
2017-Jun-24 11:30N 37°02' E 025°21'5 9.3
2017-Jun-24 11:00N 37°06' E 025°22'0 0.0
2017-Jun-24 10:30N 37°06' E 025°22'0 0.0
2017-Jun-24 10:00N 37°06' E 025°22'0 0.0
2017-Jun-24 09:30N 37°06' E 025°22'0 0.6
2017-Jun-24 09:00N 37°06' E 025°22'510.0
2017-Jun-24 08:30N 37°01' E 025°21'2 0.1
2017-Jun-23 11:44N 36°59' E 025°22'312.3
2017-Jun-23 11:30N 37°02' E 025°21'5 9.2
2017-Jun-23 11:00N 37°06' E 025°22'0 0.0
2017-Jun-23 10:30N 37°06' E 025°22'0 0.0
2017-Jun-23 10:00N 37°06' E 025°22'0 0.0
2017-Jun-23 09:30N 37°06' E 025°22'0 0.0
2017-Jun-23 09:00N 37°06' E 025°22'0 0.0
2017-Jun-23 08:30N 37°06' E 025°22'0 0.0
2017-Jun-23 08:00N 37°06' E 025°22'4 8.9
2017-Jun-23 07:30N 37°02' E 025°21'3 0.1
2017-Jun-22 09:23N 36°59' E 025°22'512.3
2017-Jun-22 09:00N 37°04' E 025°20'3 6.4
2017-Jun-22 08:30N 37°06' E 025°22'0 0.0
2017-Jun-22 08:00N 37°06' E 025°22'3 5.9
2017-Jun-22 07:30N 37°04' E 025°20'5 0.3
2017-Jun-21 11:53N 36°59' E 025°22'512.3
2017-Jun-21 11:30N 37°04' E 025°20'3 6.6
2017-Jun-21 11:00N 37°06' E 025°22'0 0.0
2017-Jun-21 10:30N 37°06' E 025°22'0 0.0
2017-Jun-21 10:00N 37°06' E 025°22'0 0.0
2017-Jun-21 09:30N 37°06' E 025°22'2 4.0
2017-Jun-21 09:00N 37°05' E 025°20'611.8
2017-Jun-21 08:30N 36°60' E 025°22'0 0.0
2017-Jun-20 09:15N 36°59' E 025°22'312.2
2017-Jun-20 09:00N 37°02' E 025°21'5 9.0
2017-Jun-20 08:30N 37°06' E 025°22'0 0.0
2017-Jun-20 08:00N 37°06' E 025°22'3 5.7
2017-Jun-20 07:30N 37°04' E 025°20'5 0.3
2017-Jun-19 11:44N 36°59' E 025°22'312.3
2017-Jun-19 11:30N 37°02' E 025°21'5 9.4
2017-Jun-19 11:00N 37°06' E 025°22'0 0.0
2017-Jun-19 10:31N 37°06' E 025°22'0 0.0
2017-Jun-19 10:01N 37°06' E 025°22'0 0.0
2017-Jun-19 09:31N 37°06' E 025°22'0 0.7
2017-Jun-19 09:01N 37°06' E 025°22'5 9.9
2017-Jun-19 08:30N 37°01' E 025°21'2 0.0
2017-Jun-17 11:49N 36°59' E 025°22'412.2
2017-Jun-17 11:31N 37°03' E 025°20'4 7.7
2017-Jun-17 11:01N 37°06' E 025°22'0 0.0
2017-Jun-17 10:30N 37°06' E 025°22'0 0.0
2017-Jun-17 10:01N 37°06' E 025°22'0 0.0
2017-Jun-17 09:31N 37°06' E 025°22'1 1.1
2017-Jun-17 09:01N 37°06' E 025°22'510.1
2017-Jun-17 08:30N 37°01' E 025°21'2 0.1
2017-Jun-16 11:44N 36°59' E 025°22'  
Track history (hours):
 
Tides and Currents Weather Stations Pressure Air Temp Water Temp Dewpoint Dewpoint Depression Visibility Wind Speed Wind Dir Waves Ship Positions

ExpreSS Skopelitis

Last reported at 2017-Jun-26 11:44 UTC. Time now 2017-Jun-26 15:31 UTC.
Position N 36°59' E 025°22'.

Length 45 m; draft 2.4 m.

Type: Passenger vessel. MMSI: 237029400.

Date/timePositionNaut miles runAvg speedWind from/ knotsBaromVisibWave heightAir tempDewpointWater temp
2017-Jun-26 11:44N 36°59' E 025°22'312.2
2017-Jun-26 11:31N 37°02' E 025°21'5 9.4
2017-Jun-26 11:01N 37°06' E 025°22'0 0.0
2017-Jun-26 10:31N 37°06' E 025°22'0 0.0
2017-Jun-26 10:01N 37°06' E 025°22'0 0.0
2017-Jun-26 09:31N 37°06' E 025°22'1 2.1
2017-Jun-26 09:01N 37°06' E 025°21'510.5
2017-Jun-26 08:31N 37°01' E 025°22'2 0.0
2017-Jun-24 11:44N 36°59' E 025°22'312.3
2017-Jun-24 11:30N 37°02' E 025°21'5 9.3
2017-Jun-24 11:00N 37°06' E 025°22'0 0.0
2017-Jun-24 10:30N 37°06' E 025°22'0 0.0
2017-Jun-24 10:00N 37°06' E 025°22'0 0.0
2017-Jun-24 09:30N 37°06' E 025°22'0 0.6
2017-Jun-24 09:00N 37°06' E 025°22'510.0
2017-Jun-24 08:30N 37°01' E 025°21'2 0.1
2017-Jun-23 11:44N 36°59' E 025°22'312.3
2017-Jun-23 11:30N 37°02' E 025°21'5 9.2
2017-Jun-23 11:00N 37°06' E 025°22'0 0.0
2017-Jun-23 10:30N 37°06' E 025°22'0 0.0
2017-Jun-23 10:00N 37°06' E 025°22'0 0.0
2017-Jun-23 09:30N 37°06' E 025°22'0 0.0
2017-Jun-23 09:00N 37°06' E 025°22'0 0.0
2017-Jun-23 08:30N 37°06' E 025°22'0 0.0
2017-Jun-23 08:00N 37°06' E 025°22'4 8.9
2017-Jun-23 07:30N 37°02' E 025°21'3 0.1
2017-Jun-22 09:23N 36°59' E 025°22'512.3
2017-Jun-22 09:00N 37°04' E 025°20'3 6.4
2017-Jun-22 08:30N 37°06' E 025°22'0 0.0
2017-Jun-22 08:00N 37°06' E 025°22'3 5.9
2017-Jun-22 07:30N 37°04' E 025°20'5 0.3
2017-Jun-21 11:53N 36°59' E 025°22'512.3
2017-Jun-21 11:30N 37°04' E 025°20'3 6.6
2017-Jun-21 11:00N 37°06' E 025°22'0 0.0
2017-Jun-21 10:30N 37°06' E 025°22'0 0.0
2017-Jun-21 10:00N 37°06' E 025°22'0 0.0
2017-Jun-21 09:30N 37°06' E 025°22'2 4.0
2017-Jun-21 09:00N 37°05' E 025°20'611.8
2017-Jun-21 08:30N 36°60' E 025°22'0 0.0
2017-Jun-20 09:15N 36°59' E 025°22'312.2
2017-Jun-20 09:00N 37°02' E 025°21'5 9.0
2017-Jun-20 08:30N 37°06' E 025°22'0 0.0
2017-Jun-20 08:00N 37°06' E 025°22'3 5.7
2017-Jun-20 07:30N 37°04' E 025°20'5 0.3
2017-Jun-19 11:44N 36°59' E 025°22'312.3
2017-Jun-19 11:30N 37°02' E 025°21'5 9.4
2017-Jun-19 11:00N 37°06' E 025°22'0 0.0
2017-Jun-19 10:31N 37°06' E 025°22'0 0.0
2017-Jun-19 10:01N 37°06' E 025°22'0 0.0
2017-Jun-19 09:31N 37°06' E 025°22'0 0.7
2017-Jun-19 09:01N 37°06' E 025°22'5 9.9
2017-Jun-19 08:30N 37°01' E 025°21'2 0.0
2017-Jun-17 11:49N 36°59' E 025°22'412.2
2017-Jun-17 11:31N 37°03' E 025°20'4 7.7
2017-Jun-17 11:01N 37°06' E 025°22'0 0.0
2017-Jun-17 10:30N 37°06' E 025°22'0 0.0
2017-Jun-17 10:01N 37°06' E 025°22'0 0.0
2017-Jun-17 09:31N 37°06' E 025°22'1 1.1
2017-Jun-17 09:01N 37°06' E 025°22'510.1
2017-Jun-17 08:30N 37°01' E 025°21'2 0.1
2017-Jun-16 11:44N 36°59' E 025°22'  

Dump ship's entire track history